sensor_id;sensor_type;location;lat;lon;timestamp;P1;durP1;ratioP1;P2;durP2;ratioP2
81934;SDS011;71405;47.674;-2.050;2024-01-06T00:02:15;4.78;;;1.90;;
81934;SDS011;71405;47.674;-2.050;2024-01-06T00:04:41;3.65;;;1.77;;
81934;SDS011;71405;47.674;-2.050;2024-01-06T00:07:06;3.75;;;1.92;;
81934;SDS011;71405;47.674;-2.050;2024-01-06T00:09:32;4.93;;;1.63;;
81934;SDS011;71405;47.674;-2.050;2024-01-06T00:11:58;4.53;;;2.00;;
81934;SDS011;71405;47.674;-2.050;2024-01-06T00:14:23;4.65;;;2.05;;
81934;SDS011;71405;47.674;-2.050;2024-01-06T00:16:49;4.20;;;1.83;;
81934;SDS011;71405;47.674;-2.050;2024-01-06T00:19:15;3.15;;;1.88;;
81934;SDS011;71405;47.674;-2.050;2024-01-06T00:21:42;3.63;;;1.70;;
81934;SDS011;71405;47.674;-2.050;2024-01-06T00:24:08;3.83;;;1.60;;
81934;SDS011;71405;47.674;-2.050;2024-01-06T00:26:34;3.72;;;1.90;;
81934;SDS011;71405;47.674;-2.050;2024-01-06T00:28:59;3.67;;;1.70;;
81934;SDS011;71405;47.674;-2.050;2024-01-06T00:31:25;3.42;;;1.75;;
81934;SDS011;71405;47.674;-2.050;2024-01-06T00:33:51;3.90;;;1.70;;
81934;SDS011;71405;47.674;-2.050;2024-01-06T00:36:16;3.83;;;1.90;;
81934;SDS011;71405;47.674;-2.050;2024-01-06T00:38:42;4.05;;;2.03;;
81934;SDS011;71405;47.674;-2.050;2024-01-06T00:41:08;2.53;;;1.45;;
81934;SDS011;71405;47.674;-2.050;2024-01-06T00:43:33;4.57;;;1.58;;
81934;SDS011;71405;47.674;-2.050;2024-01-06T00:45:59;2.85;;;1.50;;
81934;SDS011;71405;47.674;-2.050;2024-01-06T00:48:25;3.58;;;1.80;;
81934;SDS011;71405;47.674;-2.050;2024-01-06T00:50:50;2.72;;;1.73;;
81934;SDS011;71405;47.674;-2.050;2024-01-06T00:53:16;3.05;;;1.90;;
81934;SDS011;71405;47.674;-2.050;2024-01-06T00:55:42;3.22;;;1.73;;
81934;SDS011;71405;47.674;-2.050;2024-01-06T00:58:07;3.60;;;1.77;;
81934;SDS011;71405;47.674;-2.050;2024-01-06T01:00:33;4.43;;;1.75;;
81934;SDS011;71405;47.674;-2.050;2024-01-06T01:02:59;3.55;;;1.50;;
81934;SDS011;71405;47.674;-2.050;2024-01-06T01:05:25;2.65;;;1.60;;
81934;SDS011;71405;47.674;-2.050;2024-01-06T01:07:50;4.07;;;1.70;;
81934;SDS011;71405;47.674;-2.050;2024-01-06T01:10:16;3.20;;;1.52;;
81934;SDS011;71405;47.674;-2.050;2024-01-06T01:12:42;3.90;;;1.80;;
81934;SDS011;71405;47.674;-2.050;2024-01-06T01:15:07;3.17;;;1.70;;
81934;SDS011;71405;47.674;-2.050;2024-01-06T01:17:33;2.88;;;1.50;;
81934;SDS011;71405;47.674;-2.050;2024-01-06T01:19:59;3.42;;;1.80;;
81934;SDS011;71405;47.674;-2.050;2024-01-06T01:22:24;3.00;;;1.60;;
81934;SDS011;71405;47.674;-2.050;2024-01-06T01:24:50;3.20;;;1.60;;
81934;SDS011;71405;47.674;-2.050;2024-01-06T01:27:16;3.42;;;1.88;;
81934;SDS011;71405;47.674;-2.050;2024-01-06T01:29:42;3.53;;;1.90;;
81934;SDS011;71405;47.674;-2.050;2024-01-06T01:32:07;3.83;;;1.70;;
81934;SDS011;71405;47.674;-2.050;2024-01-06T01:34:33;2.80;;;1.70;;
81934;SDS011;71405;47.674;-2.050;2024-01-06T01:36:59;2.47;;;1.45;;
81934;SDS011;71405;47.674;-2.050;2024-01-06T01:39:25;3.42;;;1.70;;
81934;SDS011;71405;47.674;-2.050;2024-01-06T01:41:51;3.58;;;1.70;;
81934;SDS011;71405;47.674;-2.050;2024-01-06T01:44:16;3.92;;;1.80;;
81934;SDS011;71405;47.674;-2.050;2024-01-06T01:46:42;3.47;;;1.75;;
81934;SDS011;71405;47.674;-2.050;2024-01-06T01:49:08;3.25;;;1.52;;
81934;SDS011;71405;47.674;-2.050;2024-01-06T01:51:34;4.03;;;1.60;;
81934;SDS011;71405;47.674;-2.050;2024-01-06T01:54:01;2.78;;;1.35;;
81934;SDS011;71405;47.674;-2.050;2024-01-06T01:56:30;4.22;;;1.52;;
81934;SDS011;71405;47.674;-2.050;2024-01-06T01:58:59;2.25;;;1.33;;
81934;SDS011;71405;47.674;-2.050;2024-01-06T02:01:36;1.83;;;1.40;;
81934;SDS011;71405;47.674;-2.050;2024-01-06T02:04:02;3.55;;;1.83;;
81934;SDS011;71405;47.674;-2.050;2024-01-06T02:06:28;3.60;;;1.60;;
81934;SDS011;71405;47.674;-2.050;2024-01-06T02:08:54;2.97;;;1.60;;
81934;SDS011;71405;47.674;-2.050;2024-01-06T02:11:20;3.50;;;1.65;;
81934;SDS011;71405;47.674;-2.050;2024-01-06T02:13:46;2.72;;;1.60;;
81934;SDS011;71405;47.674;-2.050;2024-01-06T02:16:12;3.05;;;1.50;;
81934;SDS011;71405;47.674;-2.050;2024-01-06T02:18:37;3.42;;;1.63;;
81934;SDS011;71405;47.674;-2.050;2024-01-06T02:21:03;2.88;;;1.50;;
81934;SDS011;71405;47.674;-2.050;2024-01-06T02:23:29;2.70;;;1.50;;
81934;SDS011;71405;47.674;-2.050;2024-01-06T02:25:55;2.55;;;1.60;;
81934;SDS011;71405;47.674;-2.050;2024-01-06T02:28:21;3.08;;;1.50;;
81934;SDS011;71405;47.674;-2.050;2024-01-06T02:30:47;3.63;;;1.50;;
81934;SDS011;71405;47.674;-2.050;2024-01-06T02:33:13;3.90;;;1.85;;
81934;SDS011;71405;47.674;-2.050;2024-01-06T02:35:39;4.07;;;1.70;;
81934;SDS011;71405;47.674;-2.050;2024-01-06T02:38:05;3.13;;;1.60;;
81934;SDS011;71405;47.674;-2.050;2024-01-06T02:40:31;4.50;;;1.70;;
81934;SDS011;71405;47.674;-2.050;2024-01-06T02:42:57;3.20;;;1.50;;
81934;SDS011;71405;47.674;-2.050;2024-01-06T02:45:23;3.65;;;1.70;;
81934;SDS011;71405;47.674;-2.050;2024-01-06T02:47:49;3.03;;;1.50;;
81934;SDS011;71405;47.674;-2.050;2024-01-06T02:50:15;3.22;;;1.50;;
81934;SDS011;71405;47.674;-2.050;2024-01-06T02:52:40;3.60;;;1.58;;
81934;SDS011;71405;47.674;-2.050;2024-01-06T02:55:06;3.30;;;1.70;;
81934;SDS011;71405;47.674;-2.050;2024-01-06T02:57:32;3.47;;;1.63;;
81934;SDS011;71405;47.674;-2.050;2024-01-06T02:59:58;2.78;;;1.52;;
81934;SDS011;71405;47.674;-2.050;2024-01-06T03:02:23;2.50;;;1.50;;
81934;SDS011;71405;47.674;-2.050;2024-01-06T03:04:49;3.17;;;1.55;;
81934;SDS011;71405;47.674;-2.050;2024-01-06T03:07:15;3.72;;;1.45;;
81934;SDS011;71405;47.674;-2.050;2024-01-06T03:09:41;3.35;;;1.60;;
81934;SDS011;71405;47.674;-2.050;2024-01-06T03:12:06;3.25;;;1.60;;
81934;SDS011;71405;47.674;-2.050;2024-01-06T03:14:35;2.83;;;1.30;;
81934;SDS011;71405;47.674;-2.050;2024-01-06T03:17:01;3.28;;;1.60;;
81934;SDS011;71405;47.674;-2.050;2024-01-06T03:19:27;2.00;;;1.23;;
81934;SDS011;71405;47.674;-2.050;2024-01-06T03:21:53;3.22;;;1.55;;
81934;SDS011;71405;47.674;-2.050;2024-01-06T03:24:20;2.15;;;1.50;;
81934;SDS011;71405;47.674;-2.050;2024-01-06T03:26:46;3.65;;;1.60;;
81934;SDS011;71405;47.674;-2.050;2024-01-06T03:29:12;3.90;;;1.65;;
81934;SDS011;71405;47.674;-2.050;2024-01-06T03:31:41;3.95;;;1.55;;
81934;SDS011;71405;47.674;-2.050;2024-01-06T03:34:07;2.65;;;1.38;;
81934;SDS011;71405;47.674;-2.050;2024-01-06T03:36:33;2.70;;;1.38;;
81934;SDS011;71405;47.674;-2.050;2024-01-06T03:38:59;2.25;;;1.40;;
81934;SDS011;71405;47.674;-2.050;2024-01-06T03:41:25;3.13;;;1.30;;
81934;SDS011;71405;47.674;-2.050;2024-01-06T03:43:51;1.85;;;1.30;;
81934;SDS011;71405;47.674;-2.050;2024-01-06T03:46:16;2.85;;;1.50;;
81934;SDS011;71405;47.674;-2.050;2024-01-06T03:48:42;3.38;;;1.48;;
81934;SDS011;71405;47.674;-2.050;2024-01-06T03:51:08;3.55;;;1.50;;
81934;SDS011;71405;47.674;-2.050;2024-01-06T03:53:35;3.33;;;1.30;;
81934;SDS011;71405;47.674;-2.050;2024-01-06T03:56:02;2.35;;;1.30;;
81934;SDS011;71405;47.674;-2.050;2024-01-06T03:58:28;2.85;;;1.40;;
81934;SDS011;71405;47.674;-2.050;2024-01-06T04:00:54;2.78;;;1.27;;
81934;SDS011;71405;47.674;-2.050;2024-01-06T04:03:20;3.25;;;1.38;;
81934;SDS011;71405;47.674;-2.050;2024-01-06T04:05:46;2.00;;;1.20;;
81934;SDS011;71405;47.674;-2.050;2024-01-06T04:08:11;1.77;;;1.13;;
81934;SDS011;71405;47.674;-2.050;2024-01-06T04:10:37;2.83;;;1.20;;
81934;SDS011;71405;47.674;-2.050;2024-01-06T04:13:03;2.28;;;1.23;;
81934;SDS011;71405;47.674;-2.050;2024-01-06T04:15:29;4.00;;;1.17;;
81934;SDS011;71405;47.674;-2.050;2024-01-06T04:17:54;1.25;;;1.08;;
81934;SDS011;71405;47.674;-2.050;2024-01-06T04:20:20;2.00;;;1.23;;
81934;SDS011;71405;47.674;-2.050;2024-01-06T04:22:46;1.65;;;1.20;;
81934;SDS011;71405;47.674;-2.050;2024-01-06T04:25:12;2.15;;;1.23;;
81934;SDS011;71405;47.674;-2.050;2024-01-06T04:27:37;3.35;;;1.20;;
81934;SDS011;71405;47.674;-2.050;2024-01-06T04:30:03;3.22;;;1.13;;
81934;SDS011;71405;47.674;-2.050;2024-01-06T04:32:29;2.45;;;1.17;;
81934;SDS011;71405;47.674;-2.050;2024-01-06T04:34:55;1.35;;;1.00;;
81934;SDS011;71405;47.674;-2.050;2024-01-06T04:37:22;3.30;;;1.10;;
81934;SDS011;71405;47.674;-2.050;2024-01-06T04:39:47;1.98;;;1.05;;
81934;SDS011;71405;47.674;-2.050;2024-01-06T04:42:14;1.95;;;1.27;;
81934;SDS011;71405;47.674;-2.050;2024-01-06T04:44:39;2.60;;;1.17;;
81934;SDS011;71405;47.674;-2.050;2024-01-06T04:47:05;2.05;;;1.33;;
81934;SDS011;71405;47.674;-2.050;2024-01-06T04:49:31;1.88;;;1.30;;
81934;SDS011;71405;47.674;-2.050;2024-01-06T04:51:56;1.70;;;1.02;;
81934;SDS011;71405;47.674;-2.050;2024-01-06T04:54:22;1.77;;;1.10;;
81934;SDS011;71405;47.674;-2.050;2024-01-06T04:56:48;2.50;;;1.20;;
81934;SDS011;71405;47.674;-2.050;2024-01-06T04:59:13;1.63;;;0.90;;
81934;SDS011;71405;47.674;-2.050;2024-01-06T05:01:39;2.47;;;1.20;;
81934;SDS011;71405;47.674;-2.050;2024-01-06T05:04:04;2.70;;;1.08;;
81934;SDS011;71405;47.674;-2.050;2024-01-06T05:06:30;2.03;;;0.95;;
81934;SDS011;71405;47.674;-2.050;2024-01-06T05:08:56;1.83;;;1.10;;
81934;SDS011;71405;47.674;-2.050;2024-01-06T05:11:22;2.22;;;1.20;;
81934;SDS011;71405;47.674;-2.050;2024-01-06T05:13:47;2.38;;;1.10;;
81934;SDS011;71405;47.674;-2.050;2024-01-06T05:16:13;1.25;;;0.93;;
81934;SDS011;71405;47.674;-2.050;2024-01-06T05:18:39;2.05;;;1.00;;
81934;SDS011;71405;47.674;-2.050;2024-01-06T05:21:04;1.00;;;0.88;;
81934;SDS011;71405;47.674;-2.050;2024-01-06T05:23:30;1.38;;;0.90;;
81934;SDS011;71405;47.674;-2.050;2024-01-06T05:25:56;1.85;;;0.90;;
81934;SDS011;71405;47.674;-2.050;2024-01-06T05:28:22;1.77;;;1.00;;
81934;SDS011;71405;47.674;-2.050;2024-01-06T05:30:47;2.15;;;1.13;;
81934;SDS011;71405;47.674;-2.050;2024-01-06T05:33:13;1.65;;;0.93;;
81934;SDS011;71405;47.674;-2.050;2024-01-06T05:35:41;1.30;;;0.82;;
81934;SDS011;71405;47.674;-2.050;2024-01-06T05:38:06;2.17;;;0.95;;
81934;SDS011;71405;47.674;-2.050;2024-01-06T05:40:32;2.08;;;1.20;;
81934;SDS011;71405;47.674;-2.050;2024-01-06T05:42:58;1.65;;;1.00;;
81934;SDS011;71405;47.674;-2.050;2024-01-06T05:45:24;1.45;;;0.90;;
81934;SDS011;71405;47.674;-2.050;2024-01-06T05:47:49;1.63;;;0.80;;
81934;SDS011;71405;47.674;-2.050;2024-01-06T05:50:15;2.92;;;1.13;;
81934;SDS011;71405;47.674;-2.050;2024-01-06T05:52:41;0.73;;;0.65;;
81934;SDS011;71405;47.674;-2.050;2024-01-06T05:55:07;1.38;;;1.00;;
81934;SDS011;71405;47.674;-2.050;2024-01-06T05:57:34;1.77;;;1.00;;
81934;SDS011;71405;47.674;-2.050;2024-01-06T06:00:00;1.85;;;0.90;;
81934;SDS011;71405;47.674;-2.050;2024-01-06T06:02:25;1.08;;;0.60;;
81934;SDS011;71405;47.674;-2.050;2024-01-06T06:04:51;1.52;;;0.80;;
81934;SDS011;71405;47.674;-2.050;2024-01-06T06:07:17;1.23;;;1.00;;
81934;SDS011;71405;47.674;-2.050;2024-01-06T06:09:43;1.38;;;0.90;;
81934;SDS011;71405;47.674;-2.050;2024-01-06T06:12:12;2.28;;;1.00;;
81934;SDS011;71405;47.674;-2.050;2024-01-06T06:14:41;1.20;;;0.75;;
81934;SDS011;71405;47.674;-2.050;2024-01-06T06:17:07;1.55;;;0.85;;
81934;SDS011;71405;47.674;-2.050;2024-01-06T06:19:32;2.47;;;1.00;;
81934;SDS011;71405;47.674;-2.050;2024-01-06T06:21:58;1.00;;;0.75;;
81934;SDS011;71405;47.674;-2.050;2024-01-06T06:24:24;1.08;;;0.80;;
81934;SDS011;71405;47.674;-2.050;2024-01-06T06:26:49;1.17;;;0.73;;
81934;SDS011;71405;47.674;-2.050;2024-01-06T06:29:15;1.67;;;0.90;;
81934;SDS011;71405;47.674;-2.050;2024-01-06T06:31:41;1.27;;;0.80;;
81934;SDS011;71405;47.674;-2.050;2024-01-06T06:34:08;1.75;;;0.90;;
81934;SDS011;71405;47.674;-2.050;2024-01-06T06:36:34;1.85;;;0.82;;
81934;SDS011;71405;47.674;-2.050;2024-01-06T06:39:00;1.92;;;0.90;;
81934;SDS011;71405;47.674;-2.050;2024-01-06T06:41:26;1.70;;;0.70;;
81934;SDS011;71405;47.674;-2.050;2024-01-06T06:43:51;1.75;;;0.95;;
81934;SDS011;71405;47.674;-2.050;2024-01-06T06:46:17;1.45;;;0.80;;
81934;SDS011;71405;47.674;-2.050;2024-01-06T06:48:43;1.05;;;0.80;;
81934;SDS011;71405;47.674;-2.050;2024-01-06T06:51:08;1.45;;;0.90;;
81934;SDS011;71405;47.674;-2.050;2024-01-06T06:53:35;1.42;;;0.90;;
81934;SDS011;71405;47.674;-2.050;2024-01-06T06:56:01;0.77;;;0.77;;
81934;SDS011;71405;47.674;-2.050;2024-01-06T06:58:27;0.60;;;0.60;;
81934;SDS011;71405;47.674;-2.050;2024-01-06T07:00:52;0.82;;;0.80;;
81934;SDS011;71405;47.674;-2.050;2024-01-06T07:03:19;1.35;;;0.80;;
81934;SDS011;71405;47.674;-2.050;2024-01-06T07:05:45;1.17;;;0.90;;
81934;SDS011;71405;47.674;-2.050;2024-01-06T07:08:11;1.42;;;0.90;;
81934;SDS011;71405;47.674;-2.050;2024-01-06T07:10:38;1.15;;;0.90;;
81934;SDS011;71405;47.674;-2.050;2024-01-06T07:13:04;1.42;;;0.80;;
81934;SDS011;71405;47.674;-2.050;2024-01-06T07:15:30;1.42;;;0.80;;
81934;SDS011;71405;47.674;-2.050;2024-01-06T07:17:56;1.08;;;0.60;;
81934;SDS011;71405;47.674;-2.050;2024-01-06T07:20:21;2.70;;;0.88;;
81934;SDS011;71405;47.674;-2.050;2024-01-06T07:22:47;1.92;;;1.00;;
81934;SDS011;71405;47.674;-2.050;2024-01-06T07:25:13;0.93;;;0.70;;
81934;SDS011;71405;47.674;-2.050;2024-01-06T07:27:38;1.98;;;0.73;;
81934;SDS011;71405;47.674;-2.050;2024-01-06T07:30:04;1.17;;;0.90;;
81934;SDS011;71405;47.674;-2.050;2024-01-06T07:32:33;1.75;;;0.82;;
81934;SDS011;71405;47.674;-2.050;2024-01-06T07:34:59;1.00;;;0.73;;
81934;SDS011;71405;47.674;-2.050;2024-01-06T07:37:25;1.48;;;0.90;;
81934;SDS011;71405;47.674;-2.050;2024-01-06T07:39:50;2.58;;;0.80;;
81934;SDS011;71405;47.674;-2.050;2024-01-06T07:42:16;0.88;;;0.80;;
81934;SDS011;71405;47.674;-2.050;2024-01-06T07:44:43;4.30;;;1.52;;
81934;SDS011;71405;47.674;-2.050;2024-01-06T07:47:09;2.10;;;1.10;;
81934;SDS011;71405;47.674;-2.050;2024-01-06T07:49:35;0.98;;;0.70;;
81934;SDS011;71405;47.674;-2.050;2024-01-06T07:52:01;1.80;;;0.70;;
81934;SDS011;71405;47.674;-2.050;2024-01-06T07:54:27;0.82;;;0.70;;
81934;SDS011;71405;47.674;-2.050;2024-01-06T07:56:53;2.50;;;1.00;;
81934;SDS011;71405;47.674;-2.050;2024-01-06T07:59:18;1.70;;;0.88;;
81934;SDS011;71405;47.674;-2.050;2024-01-06T08:01:44;2.10;;;0.90;;
81934;SDS011;71405;47.674;-2.050;2024-01-06T08:04:10;1.23;;;0.90;;
81934;SDS011;71405;47.674;-2.050;2024-01-06T08:06:35;1.85;;;0.90;;
81934;SDS011;71405;47.674;-2.050;2024-01-06T08:09:01;1.88;;;0.90;;
81934;SDS011;71405;47.674;-2.050;2024-01-06T08:11:28;1.70;;;0.90;;
81934;SDS011;71405;47.674;-2.050;2024-01-06T08:13:54;2.50;;;0.90;;
81934;SDS011;71405;47.674;-2.050;2024-01-06T08:16:20;1.60;;;0.70;;
81934;SDS011;71405;47.674;-2.050;2024-01-06T08:18:46;2.28;;;1.00;;
81934;SDS011;71405;47.674;-2.050;2024-01-06T08:21:11;2.22;;;1.40;;
81934;SDS011;71405;47.674;-2.050;2024-01-06T08:23:37;2.22;;;0.90;;
81934;SDS011;71405;47.674;-2.050;2024-01-06T08:26:03;2.63;;;1.05;;
81934;SDS011;71405;47.674;-2.050;2024-01-06T08:28:30;2.97;;;1.10;;
81934;SDS011;71405;47.674;-2.050;2024-01-06T08:30:55;2.08;;;1.00;;
81934;SDS011;71405;47.674;-2.050;2024-01-06T08:33:21;1.77;;;0.70;;
81934;SDS011;71405;47.674;-2.050;2024-01-06T08:35:47;1.65;;;1.00;;
81934;SDS011;71405;47.674;-2.050;2024-01-06T08:38:13;0.98;;;0.80;;
81934;SDS011;71405;47.674;-2.050;2024-01-06T08:40:39;3.05;;;1.10;;
81934;SDS011;71405;47.674;-2.050;2024-01-06T08:43:05;2.05;;;1.00;;
81934;SDS011;71405;47.674;-2.050;2024-01-06T08:45:31;1.58;;;1.02;;
81934;SDS011;71405;47.674;-2.050;2024-01-06T08:47:56;3.35;;;1.15;;
81934;SDS011;71405;47.674;-2.050;2024-01-06T08:50:22;2.53;;;0.90;;
81934;SDS011;71405;47.674;-2.050;2024-01-06T08:52:48;1.92;;;1.00;;
81934;SDS011;71405;47.674;-2.050;2024-01-06T08:55:14;1.52;;;0.70;;
81934;SDS011;71405;47.674;-2.050;2024-01-06T08:57:41;1.85;;;0.98;;
81934;SDS011;71405;47.674;-2.050;2024-01-06T09:00:07;3.45;;;0.90;;
81934;SDS011;71405;47.674;-2.050;2024-01-06T09:02:34;2.30;;;0.90;;
81934;SDS011;71405;47.674;-2.050;2024-01-06T09:05:00;2.75;;;0.95;;
81934;SDS011;71405;47.674;-2.050;2024-01-06T09:07:25;2.15;;;0.85;;
81934;SDS011;71405;47.674;-2.050;2024-01-06T09:09:51;1.77;;;0.90;;
81934;SDS011;71405;47.674;-2.050;2024-01-06T09:12:16;4.65;;;1.67;;
81934;SDS011;71405;47.674;-2.050;2024-01-06T09:14:42;2.55;;;1.10;;
81934;SDS011;71405;47.674;-2.050;2024-01-06T09:17:08;3.15;;;1.33;;
81934;SDS011;71405;47.674;-2.050;2024-01-06T09:19:33;4.82;;;1.50;;
81934;SDS011;71405;47.674;-2.050;2024-01-06T09:21:59;4.15;;;1.58;;
81934;SDS011;71405;47.674;-2.050;2024-01-06T09:24:25;3.70;;;1.50;;
81934;SDS011;71405;47.674;-2.050;2024-01-06T09:26:51;3.38;;;1.15;;
81934;SDS011;71405;47.674;-2.050;2024-01-06T09:29:16;3.97;;;1.30;;
81934;SDS011;71405;47.674;-2.050;2024-01-06T09:31:42;2.92;;;1.20;;
81934;SDS011;71405;47.674;-2.050;2024-01-06T09:34:11;5.55;;;1.40;;
81934;SDS011;71405;47.674;-2.050;2024-01-06T09:36:37;2.95;;;1.10;;
81934;SDS011;71405;47.674;-2.050;2024-01-06T09:39:03;2.28;;;1.00;;
81934;SDS011;71405;47.674;-2.050;2024-01-06T09:41:30;2.60;;;0.93;;
81934;SDS011;71405;47.674;-2.050;2024-01-06T09:43:56;2.80;;;1.30;;
81934;SDS011;71405;47.674;-2.050;2024-01-06T09:46:26;3.65;;;1.13;;
81934;SDS011;71405;47.674;-2.050;2024-01-06T09:48:55;3.25;;;1.30;;
81934;SDS011;71405;47.674;-2.050;2024-01-06T09:51:22;2.28;;;1.10;;
81934;SDS011;71405;47.674;-2.050;2024-01-06T09:53:49;2.30;;;1.00;;
81934;SDS011;71405;47.674;-2.050;2024-01-06T09:56:24;2.88;;;1.05;;
81934;SDS011;71405;47.674;-2.050;2024-01-06T09:58:50;5.18;;;1.52;;
81934;SDS011;71405;47.674;-2.050;2024-01-06T10:01:19;2.42;;;1.10;;
81934;SDS011;71405;47.674;-2.050;2024-01-06T10:03:45;2.78;;;1.15;;
81934;SDS011;71405;47.674;-2.050;2024-01-06T10:06:11;3.63;;;1.27;;
81934;SDS011;71405;47.674;-2.050;2024-01-06T10:08:38;1.17;;;0.85;;
81934;SDS011;71405;47.674;-2.050;2024-01-06T10:11:05;3.08;;;0.90;;
81934;SDS011;71405;47.674;-2.050;2024-01-06T10:13:33;4.47;;;1.10;;
81934;SDS011;71405;47.674;-2.050;2024-01-06T10:15:58;2.85;;;1.13;;
81934;SDS011;71405;47.674;-2.050;2024-01-06T10:18:24;4.32;;;1.70;;
81934;SDS011;71405;47.674;-2.050;2024-01-06T10:20:52;4.22;;;1.40;;
81934;SDS011;71405;47.674;-2.050;2024-01-06T10:23:18;4.68;;;1.40;;
81934;SDS011;71405;47.674;-2.050;2024-01-06T10:25:44;3.35;;;1.10;;
81934;SDS011;71405;47.674;-2.050;2024-01-06T10:28:13;4.93;;;1.52;;
81934;SDS011;71405;47.674;-2.050;2024-01-06T10:30:38;3.35;;;1.20;;
81934;SDS011;71405;47.674;-2.050;2024-01-06T10:33:10;6.07;;;1.70;;
81934;SDS011;71405;47.674;-2.050;2024-01-06T10:35:38;2.67;;;1.20;;
81934;SDS011;71405;47.674;-2.050;2024-01-06T10:38:04;4.25;;;1.27;;
81934;SDS011;71405;47.674;-2.050;2024-01-06T10:40:31;5.85;;;1.70;;
81934;SDS011;71405;47.674;-2.050;2024-01-06T10:42:57;3.50;;;1.40;;
81934;SDS011;71405;47.674;-2.050;2024-01-06T10:45:23;2.83;;;1.27;;
81934;SDS011;71405;47.674;-2.050;2024-01-06T10:47:49;2.42;;;1.30;;
81934;SDS011;71405;47.674;-2.050;2024-01-06T10:50:18;2.28;;;1.10;;
81934;SDS011;71405;47.674;-2.050;2024-01-06T10:52:46;4.32;;;1.30;;
81934;SDS011;71405;47.674;-2.050;2024-01-06T10:55:13;4.97;;;1.40;;
81934;SDS011;71405;47.674;-2.050;2024-01-06T10:57:43;3.35;;;1.30;;
81934;SDS011;71405;47.674;-2.050;2024-01-06T11:00:10;4.18;;;1.63;;
81934;SDS011;71405;47.674;-2.050;2024-01-06T11:02:36;2.55;;;1.17;;
81934;SDS011;71405;47.674;-2.050;2024-01-06T11:05:03;3.53;;;1.20;;
81934;SDS011;71405;47.674;-2.050;2024-01-06T11:07:32;3.28;;;1.10;;
81934;SDS011;71405;47.674;-2.050;2024-01-06T11:10:02;3.83;;;1.42;;
81934;SDS011;71405;47.674;-2.050;2024-01-06T11:12:33;3.88;;;1.20;;
81934;SDS011;71405;47.674;-2.050;2024-01-06T11:14:59;3.13;;;1.40;;
81934;SDS011;71405;47.674;-2.050;2024-01-06T11:20:20;2.47;;;0.98;;
81934;SDS011;71405;47.674;-2.050;2024-01-06T11:22:47;2.60;;;1.17;;
81934;SDS011;71405;47.674;-2.050;2024-01-06T11:25:14;2.45;;;1.00;;
81934;SDS011;71405;47.674;-2.050;2024-01-06T11:27:42;2.55;;;1.27;;
81934;SDS011;71405;47.674;-2.050;2024-01-06T11:30:18;3.22;;;1.27;;
81934;SDS011;71405;47.674;-2.050;2024-01-06T11:32:48;6.47;;;1.48;;
81934;SDS011;71405;47.674;-2.050;2024-01-06T11:35:17;3.88;;;1.30;;
81934;SDS011;71405;47.674;-2.050;2024-01-06T11:43:07;3.28;;;1.10;;
81934;SDS011;71405;47.674;-2.050;2024-01-06T11:45:34;1.90;;;0.95;;
81934;SDS011;71405;47.674;-2.050;2024-01-06T11:48:05;3.33;;;1.15;;
81934;SDS011;71405;47.674;-2.050;2024-01-06T11:50:35;3.03;;;1.10;;
81934;SDS011;71405;47.674;-2.050;2024-01-06T11:53:03;3.90;;;1.30;;
81934;SDS011;71405;47.674;-2.050;2024-01-06T11:55:30;2.40;;;1.17;;
81934;SDS011;71405;47.674;-2.050;2024-01-06T11:58:00;2.42;;;1.00;;
81934;SDS011;71405;47.674;-2.050;2024-01-06T12:00:31;2.05;;;1.13;;
81934;SDS011;71405;47.674;-2.050;2024-01-06T12:03:01;1.05;;;0.85;;
81934;SDS011;71405;47.674;-2.050;2024-01-06T12:05:27;2.78;;;1.20;;
81934;SDS011;71405;47.674;-2.050;2024-01-06T12:07:54;2.10;;;0.90;;
81934;SDS011;71405;47.674;-2.050;2024-01-06T12:10:20;2.85;;;1.02;;
81934;SDS011;71405;47.674;-2.050;2024-01-06T12:13:00;3.42;;;1.20;;
81934;SDS011;71405;47.674;-2.050;2024-01-06T12:15:35;6.05;;;1.80;;
81934;SDS011;71405;47.674;-2.050;2024-01-06T12:18:04;5.40;;;1.70;;
81934;SDS011;71405;47.674;-2.050;2024-01-06T12:20:31;6.03;;;1.70;;
81934;SDS011;71405;47.674;-2.050;2024-01-06T12:22:57;5.85;;;1.50;;
81934;SDS011;71405;47.674;-2.050;2024-01-06T12:25:23;3.55;;;1.42;;
81934;SDS011;71405;47.674;-2.050;2024-01-06T12:27:50;5.43;;;1.85;;
81934;SDS011;71405;47.674;-2.050;2024-01-06T12:30:17;3.75;;;1.20;;
81934;SDS011;71405;47.674;-2.050;2024-01-06T12:32:44;5.65;;;1.73;;
81934;SDS011;71405;47.674;-2.050;2024-01-06T12:35:12;6.20;;;1.65;;
81934;SDS011;71405;47.674;-2.050;2024-01-06T12:37:39;4.75;;;1.50;;
81934;SDS011;71405;47.674;-2.050;2024-01-06T12:40:08;5.28;;;1.75;;
81934;SDS011;71405;47.674;-2.050;2024-01-06T12:42:34;3.80;;;1.55;;
81934;SDS011;71405;47.674;-2.050;2024-01-06T12:45:01;4.97;;;1.50;;
81934;SDS011;71405;47.674;-2.050;2024-01-06T12:47:27;6.40;;;1.52;;
81934;SDS011;71405;47.674;-2.050;2024-01-06T12:49:53;4.30;;;1.40;;
81934;SDS011;71405;47.674;-2.050;2024-01-06T12:52:18;9.50;;;1.80;;
81934;SDS011;71405;47.674;-2.050;2024-01-06T12:54:44;3.55;;;1.33;;
81934;SDS011;71405;47.674;-2.050;2024-01-06T12:57:10;6.93;;;2.13;;
81934;SDS011;71405;47.674;-2.050;2024-01-06T12:59:36;7.45;;;3.22;;
81934;SDS011;71405;47.674;-2.050;2024-01-06T13:02:02;8.57;;;3.92;;
81934;SDS011;71405;47.674;-2.050;2024-01-06T13:04:28;8.63;;;4.00;;
81934;SDS011;71405;47.674;-2.050;2024-01-06T13:06:54;8.52;;;4.80;;
81934;SDS011;71405;47.674;-2.050;2024-01-06T13:09:19;9.77;;;5.30;;
81934;SDS011;71405;47.674;-2.050;2024-01-06T13:11:48;8.35;;;4.70;;
81934;SDS011;71405;47.674;-2.050;2024-01-06T13:14:15;10.35;;;4.72;;
81934;SDS011;71405;47.674;-2.050;2024-01-06T13:16:41;8.00;;;4.20;;
81934;SDS011;71405;47.674;-2.050;2024-01-06T13:19:07;8.05;;;4.10;;
81934;SDS011;71405;47.674;-2.050;2024-01-06T13:21:33;8.60;;;4.00;;
81934;SDS011;71405;47.674;-2.050;2024-01-06T13:24:00;8.13;;;3.88;;
81934;SDS011;71405;47.674;-2.050;2024-01-06T13:26:27;8.90;;;3.65;;
81934;SDS011;71405;47.674;-2.050;2024-01-06T13:28:53;8.95;;;3.75;;
81934;SDS011;71405;47.674;-2.050;2024-01-06T13:31:19;7.72;;;3.60;;
81934;SDS011;71405;47.674;-2.050;2024-01-06T13:33:45;7.97;;;3.47;;
81934;SDS011;71405;47.674;-2.050;2024-01-06T13:36:11;9.35;;;3.30;;
81934;SDS011;71405;47.674;-2.050;2024-01-06T13:38:37;8.40;;;3.35;;
81934;SDS011;71405;47.674;-2.050;2024-01-06T13:41:03;6.93;;;3.45;;
81934;SDS011;71405;47.674;-2.050;2024-01-06T13:43:29;7.95;;;3.00;;
81934;SDS011;71405;47.674;-2.050;2024-01-06T13:45:56;9.25;;;3.72;;
81934;SDS011;71405;47.674;-2.050;2024-01-06T13:48:22;6.45;;;2.95;;
81934;SDS011;71405;47.674;-2.050;2024-01-06T13:50:48;5.90;;;2.80;;
81934;SDS011;71405;47.674;-2.050;2024-01-06T13:53:14;6.10;;;2.67;;
81934;SDS011;71405;47.674;-2.050;2024-01-06T13:55:40;8.43;;;2.92;;
81934;SDS011;71405;47.674;-2.050;2024-01-06T13:58:06;7.78;;;2.60;;
81934;SDS011;71405;47.674;-2.050;2024-01-06T14:00:34;7.72;;;2.78;;
81934;SDS011;71405;47.674;-2.050;2024-01-06T14:03:00;6.75;;;2.10;;
81934;SDS011;71405;47.674;-2.050;2024-01-06T14:05:26;7.22;;;2.75;;
81934;SDS011;71405;47.674;-2.050;2024-01-06T14:07:52;6.30;;;2.28;;
81934;SDS011;71405;47.674;-2.050;2024-01-06T14:10:18;7.22;;;2.35;;
81934;SDS011;71405;47.674;-2.050;2024-01-06T14:12:44;7.95;;;2.53;;
81934;SDS011;71405;47.674;-2.050;2024-01-06T14:15:10;6.53;;;2.22;;
81934;SDS011;71405;47.674;-2.050;2024-01-06T14:17:36;5.38;;;2.25;;
81934;SDS011;71405;47.674;-2.050;2024-01-06T14:20:02;5.85;;;2.10;;
81934;SDS011;71405;47.674;-2.050;2024-01-06T14:22:29;8.32;;;2.00;;
81934;SDS011;71405;47.674;-2.050;2024-01-06T14:24:55;5.30;;;1.98;;
81934;SDS011;71405;47.674;-2.050;2024-01-06T14:27:20;5.45;;;2.00;;
81934;SDS011;71405;47.674;-2.050;2024-01-06T14:29:47;4.30;;;1.90;;
81934;SDS011;71405;47.674;-2.050;2024-01-06T14:32:13;5.07;;;2.13;;
81934;SDS011;71405;47.674;-2.050;2024-01-06T14:34:39;4.53;;;1.58;;
81934;SDS011;71405;47.674;-2.050;2024-01-06T14:37:05;6.50;;;1.98;;